Weather at Alameda Naval Air Station [CLOSED]

Public forecast

Using degrees Fahrenheit for public forecast. Weather courtesy of forecast.io.

Closest aviation weather report (METAR) to Alameda Naval Air Station

Closest report is Metropolitan Oakland International Airport, 6.2 nm (11.5 km) SE. Retrieved 2022/07/01 19:53 UTC (55 minutes ago):

KOAK 011953Z 27010KT 10SM SCT013 17/11 A3004 RMK AO2 SLP173 T01720111

Closest aviation forecast (TAF) to Alameda Naval Air Station

Closest forecast is Metropolitan Oakland International Airport, 6.2 nm (11.5 km) SE. Retrieved 2022/07/01 18:42 UTC (2 hours ago):

TAF KOAK 011740Z 0118/0224 26008KT P6SM SCT012 BKN016 FM011900 27011KT P6SM SCT020 FM020200 27016KT P6SM BKN012 FM020500 26011KT P6SM OVC008 FM021900 24015KT P6SM SCT015